createdAt,value
2022-12-04T00:02:12.760Z,99803.91
2022-12-04T00:04:40.207Z,99808.41
2022-12-04T00:07:07.350Z,99808.97
2022-12-04T00:09:34.446Z,99802.31
2022-12-04T00:12:01.829Z,99798.50
2022-12-04T00:14:31.000Z,99803.19
2022-12-04T00:16:58.515Z,99803.28
2022-12-04T00:19:25.905Z,99799.94
2022-12-04T00:21:53.012Z,99798.66
2022-12-04T00:24:20.120Z,99806.12
2022-12-04T00:26:47.492Z,99811.53
2022-12-04T00:29:14.724Z,99815.56
2022-12-04T00:31:41.954Z,99807.50
2022-12-04T00:34:09.326Z,99801.94
2022-12-04T00:36:36.435Z,99800.03
2022-12-04T00:39:03.879Z,99799.38
2022-12-04T00:41:31.938Z,99803.00
2022-12-04T00:44:02.096Z,99797.72
2022-12-04T00:46:29.831Z,99787.44
2022-12-04T00:48:58.977Z,99793.31
2022-12-04T00:51:26.157Z,99780.66
2022-12-04T00:53:53.393Z,99778.66
2022-12-04T00:56:24.166Z,99800.91
2022-12-04T00:58:52.001Z,99797.72
2022-12-04T01:01:20.169Z,99803.72
2022-12-04T01:03:48.001Z,99797.41
2022-12-04T01:06:22.589Z,99793.84
2022-12-04T01:08:50.535Z,99809.28
2022-12-04T01:11:17.864Z,99807.06
2022-12-04T01:13:45.074Z,99800.69
2022-12-04T01:16:23.552Z,99801.94
2022-12-04T01:18:50.965Z,99801.66
2022-12-04T01:21:18.581Z,99807.41
2022-12-04T01:23:45.787Z,99797.50
2022-12-04T01:26:13.072Z,99796.09
2022-12-04T01:28:40.670Z,99807.38
2022-12-04T01:31:10.092Z,99802.91
2022-12-04T01:33:37.545Z,99804.66
2022-12-04T01:36:05.851Z,99812.88
2022-12-04T01:38:33.455Z,99813.75
2022-12-04T01:41:00.822Z,99808.63
2022-12-04T01:43:29.701Z,99809.38
2022-12-04T01:45:57.340Z,99807.94
2022-12-04T01:48:32.032Z,99794.00
2022-12-04T01:51:25.563Z,99803.69
2022-12-04T01:53:56.806Z,99798.56
2022-12-04T01:56:25.117Z,99803.94
2022-12-04T01:58:53.228Z,99788.31
2022-12-04T02:01:20.669Z,99799.81
2022-12-04T02:03:48.081Z,99785.75
2022-12-04T02:06:15.152Z,99784.16
2022-12-04T02:08:42.273Z,99787.13
2022-12-04T02:11:09.688Z,99787.03
2022-12-04T02:13:42.590Z,99782.25
2022-12-04T02:16:20.258Z,99785.09
2022-12-04T02:19:03.029Z,99777.84
2022-12-04T02:21:30.456Z,99780.00
2022-12-04T02:24:00.600Z,99771.50
2022-12-04T02:26:30.438Z,99779.78
2022-12-04T02:29:00.829Z,99778.63
2022-12-04T02:31:30.608Z,99781.59
2022-12-04T02:33:59.709Z,99776.28
2022-12-04T02:36:28.595Z,99775.31
2022-12-04T02:38:57.433Z,99774.28
2022-12-04T02:41:34.265Z,99786.75
2022-12-04T02:44:08.203Z,99785.81
2022-12-04T02:46:37.586Z,99783.66
2022-12-04T02:49:05.322Z,99781.41
2022-12-04T02:51:33.468Z,99781.84
2022-12-04T02:54:24.088Z,99786.59
2022-12-04T02:56:51.177Z,99781.53
2022-12-04T02:59:20.522Z,99771.13
2022-12-04T03:01:49.159Z,99763.00
2022-12-04T03:04:17.791Z,99774.25
2022-12-04T03:06:52.841Z,99771.53
2022-12-04T03:09:21.993Z,99771.03
2022-12-04T03:11:54.173Z,99777.75
2022-12-04T03:14:25.134Z,99772.84
2022-12-04T03:16:53.913Z,99777.63
2022-12-04T03:19:25.051Z,99777.50
2022-12-04T03:21:54.396Z,99782.56
2022-12-04T03:24:25.280Z,99788.13
2022-12-04T03:26:58.422Z,99774.91
2022-12-04T03:29:25.439Z,99779.16
2022-12-04T03:32:02.083Z,99776.09
2022-12-04T03:34:36.968Z,99777.84
2022-12-04T03:37:09.126Z,99770.66
2022-12-04T03:39:38.243Z,99778.84
2022-12-04T03:42:10.625Z,99775.72
2022-12-04T03:44:56.715Z,99775.38
2022-12-04T03:47:30.488Z,99775.22
2022-12-04T03:49:59.164Z,99785.00
2022-12-04T03:52:52.918Z,99780.69
2022-12-04T03:55:24.912Z,99786.56
2022-12-04T03:57:52.311Z,99783.81
2022-12-04T04:00:21.347Z,99794.16
2022-12-04T04:02:50.224Z,99783.97
2022-12-04T04:05:17.351Z,99776.06
2022-12-04T04:07:46.822Z,99776.25
2022-12-04T04:10:16.010Z,99771.69
2022-12-04T04:12:44.540Z,99775.06
2022-12-04T04:15:34.124Z,99778.75
2022-12-04T04:18:20.730Z,99768.19
2022-12-04T04:21:08.160Z,99778.56
2022-12-04T04:23:56.121Z,99767.47
2022-12-04T04:26:23.236Z,99778.03
2022-12-04T04:28:50.603Z,99783.28
2022-12-04T04:31:24.489Z,99789.72
2022-12-04T04:33:54.226Z,99784.84
2022-12-04T04:36:21.241Z,99793.53
2022-12-04T04:39:08.556Z,99801.66
2022-12-04T04:41:56.151Z,99795.31
2022-12-04T04:44:25.880Z,99794.19
2022-12-04T04:46:54.312Z,99789.75
2022-12-04T04:49:22.417Z,99778.75
2022-12-04T04:51:49.548Z,99787.13
2022-12-04T04:54:17.277Z,99781.97
2022-12-04T04:56:44.751Z,99775.84
2022-12-04T04:59:12.093Z,99776.19
2022-12-04T05:01:40.116Z,99789.25
2022-12-04T05:04:07.614Z,99788.88
2022-12-04T05:06:34.712Z,99793.06
2022-12-04T05:09:02.092Z,99793.88
2022-12-04T05:11:34.845Z,99790.00
2022-12-04T05:14:02.221Z,99786.03
2022-12-04T05:16:29.494Z,99781.06
2022-12-04T05:19:15.627Z,99779.44
2022-12-04T05:21:42.958Z,99781.94
2022-12-04T05:24:10.060Z,99772.50
2022-12-04T05:26:37.151Z,99772.50
2022-12-04T05:29:04.547Z,99773.13
2022-12-04T05:31:31.879Z,99770.06
2022-12-04T05:33:59.052Z,99774.56
2022-12-04T05:36:26.416Z,99773.13
2022-12-04T05:38:53.505Z,99773.44
2022-12-04T05:41:20.598Z,99774.38
2022-12-04T05:43:47.934Z,99777.34
2022-12-04T05:46:15.147Z,99766.47
2022-12-04T05:48:42.281Z,99772.84
2022-12-04T05:51:09.852Z,99772.56
2022-12-04T05:53:37.051Z,99780.94
2022-12-04T05:56:05.052Z,99783.62
2022-12-04T05:58:34.239Z,99777.53
2022-12-04T06:01:01.376Z,99772.59
2022-12-04T06:03:28.911Z,99775.88
2022-12-04T06:05:56.065Z,99778.75
2022-12-04T06:08:23.189Z,99781.56
2022-12-04T06:10:50.557Z,99776.06
2022-12-04T06:13:17.645Z,99776.28
2022-12-04T06:15:44.715Z,99780.03
2022-12-04T06:18:12.197Z,99787.87
2022-12-04T06:20:39.377Z,99789.38
2022-12-04T06:23:06.552Z,99787.19
2022-12-04T06:25:34.175Z,99790.78
2022-12-04T06:28:01.286Z,99790.09
2022-12-04T06:30:28.408Z,99805.63
2022-12-04T06:32:55.773Z,99805.06
2022-12-04T06:35:22.887Z,99797.81
2022-12-04T06:37:50.013Z,99797.59
2022-12-04T06:40:17.393Z,99792.47
2022-12-04T06:42:44.520Z,99787.44
2022-12-04T06:45:11.705Z,99784.16
2022-12-04T06:47:39.078Z,99789.44
2022-12-04T06:50:06.591Z,99781.84
2022-12-04T06:52:34.044Z,99789.16
2022-12-04T06:55:01.481Z,99795.16
2022-12-04T06:57:28.584Z,99793.22
2022-12-04T06:59:55.857Z,99787.09
2022-12-04T07:02:23.374Z,99774.91
2022-12-04T07:04:54.041Z,99780.53
2022-12-04T07:07:21.140Z,99778.88
2022-12-04T07:09:48.510Z,99775.72
2022-12-04T07:12:15.606Z,99788.25
2022-12-04T07:14:42.707Z,99779.22
2022-12-04T07:17:10.130Z,99787.47
2022-12-04T07:19:37.268Z,99787.28
2022-12-04T07:22:04.543Z,99794.63
2022-12-04T07:24:31.928Z,99790.66
2022-12-04T07:26:59.039Z,99793.59
2022-12-04T07:29:26.151Z,99776.53
2022-12-04T07:31:53.596Z,99783.25
2022-12-04T07:34:20.744Z,99786.75
2022-12-04T07:36:47.852Z,99784.56
2022-12-04T07:39:15.233Z,99797.16
2022-12-04T07:41:42.355Z,99789.88
2022-12-04T07:44:09.448Z,99789.94
2022-12-04T07:46:36.787Z,99793.00
2022-12-04T07:49:03.889Z,99797.28
2022-12-04T07:51:30.991Z,99803.03
2022-12-04T07:54:02.790Z,99799.94
2022-12-04T07:56:30.701Z,99800.03
2022-12-04T07:58:59.454Z,99808.28
2022-12-04T08:01:26.922Z,99794.63
2022-12-04T08:03:55.653Z,99796.41
2022-12-04T08:06:23.350Z,99785.75
2022-12-04T08:08:50.530Z,99784.41
2022-12-04T08:11:19.285Z,99790.56
2022-12-04T08:13:46.397Z,99792.44
2022-12-04T08:16:13.923Z,99786.16
2022-12-04T08:18:41.818Z,99782.63
2022-12-04T08:21:13.949Z,99788.84
2022-12-04T08:23:42.075Z,99793.44
2022-12-04T08:26:09.323Z,99776.44
2022-12-04T08:28:36.527Z,99782.06
2022-12-04T08:31:08.127Z,99790.06
2022-12-04T08:33:35.372Z,99787.97
2022-12-04T08:36:02.727Z,99788.97
2022-12-04T08:38:30.125Z,99789.13
2022-12-04T08:41:01.281Z,99779.66
2022-12-04T08:43:28.455Z,99774.19
2022-12-04T08:45:56.689Z,99787.97
2022-12-04T08:48:23.816Z,99789.84
2022-12-04T08:50:50.985Z,99789.88
2022-12-04T08:53:18.448Z,99793.91
2022-12-04T08:55:45.610Z,99795.37
2022-12-04T08:58:13.300Z,99797.06
2022-12-04T09:00:40.881Z,99793.72
2022-12-04T09:03:08.705Z,99793.19
2022-12-04T09:05:36.245Z,99796.22
2022-12-04T09:08:04.027Z,99792.06
2022-12-04T09:10:31.345Z,99784.56
2022-12-04T09:13:00.139Z,99783.75
2022-12-04T09:15:28.059Z,99783.19
2022-12-04T09:17:55.607Z,99778.44
2022-12-04T09:20:23.158Z,99777.44
2022-12-04T09:23:03.899Z,99777.47
2022-12-04T09:25:32.759Z,99771.75
2022-12-04T09:28:00.194Z,99775.69
2022-12-04T09:30:29.690Z,99777.91
2022-12-04T09:32:57.150Z,99795.53
2022-12-04T09:35:24.878Z,99770.88
2022-12-04T09:37:52.419Z,99773.94
2022-12-04T09:40:37.247Z,99767.94
2022-12-04T09:43:17.327Z,99754.75
2022-12-04T09:45:46.629Z,99752.81
2022-12-04T09:48:15.324Z,99747.09
2022-12-04T09:50:43.619Z,99740.69
2022-12-04T09:53:14.034Z,99731.91
2022-12-04T09:55:46.244Z,99731.06
2022-12-04T09:58:16.110Z,99730.75
2022-12-04T10:00:44.840Z,99719.22
2022-12-04T10:03:16.600Z,99732.53
2022-12-04T10:05:54.691Z,99715.53
2022-12-04T10:08:54.999Z,99728.91
2022-12-04T10:11:23.352Z,99731.19
2022-12-04T10:13:59.196Z,99725.28
2022-12-04T10:16:45.271Z,99714.81
2022-12-04T10:19:36.416Z,99709.75
2022-12-04T10:22:19.268Z,99713.84
2022-12-04T10:24:50.088Z,99704.84
2022-12-04T10:27:24.575Z,99707.06
2022-12-04T10:29:56.617Z,99697.13
2022-12-04T10:32:29.288Z,99696.50
2022-12-04T10:34:57.887Z,99695.97
2022-12-04T10:37:25.085Z,99701.28
2022-12-04T10:39:56.418Z,99693.06
2022-12-04T10:42:36.229Z,99693.84
2022-12-04T10:45:05.149Z,99678.03
2022-12-04T10:47:32.540Z,99684.66
2022-12-04T10:50:00.818Z,99677.56
2022-12-04T10:52:28.085Z,99675.84
2022-12-04T10:54:56.822Z,99666.94
2022-12-04T10:57:34.184Z,99661.88
2022-12-04T11:00:01.545Z,99655.97
2022-12-04T11:02:29.486Z,99651.53
2022-12-04T11:05:00.868Z,99645.19
2022-12-04T11:07:29.221Z,99654.34
2022-12-04T11:09:57.893Z,99644.78
2022-12-04T11:12:25.621Z,99639.59
2022-12-04T11:14:59.982Z,99628.84
2022-12-04T11:17:27.090Z,99624.56
2022-12-04T11:20:01.809Z,99616.09
2022-12-04T11:22:29.025Z,99621.88
2022-12-04T11:24:57.494Z,99635.16
2022-12-04T11:27:34.424Z,99631.78
2022-12-04T11:30:02.608Z,99623.69
2022-12-04T11:32:30.394Z,99628.09
2022-12-04T11:34:59.171Z,99621.72
2022-12-04T11:37:28.541Z,99611.03
2022-12-04T11:39:55.931Z,99622.47
2022-12-04T11:42:27.960Z,99619.87
2022-12-04T11:44:59.788Z,99605.56
2022-12-04T11:47:28.600Z,99607.59
2022-12-04T11:50:01.606Z,99604.87
2022-12-04T11:52:47.381Z,99599.47
2022-12-04T11:55:23.905Z,99593.97
2022-12-04T11:58:04.996Z,99592.97
2022-12-04T12:00:33.061Z,99598.53
2022-12-04T12:03:00.548Z,99590.94
2022-12-04T12:05:30.608Z,99594.25
2022-12-04T12:08:02.446Z,99596.63
2022-12-04T12:10:32.848Z,99605.81
2022-12-04T12:12:59.931Z,99599.41
2022-12-04T12:15:32.497Z,99601.75
2022-12-04T12:18:12.470Z,99596.37
2022-12-04T12:20:45.989Z,99606.03
2022-12-04T12:23:24.163Z,99620.19
2022-12-04T12:25:56.215Z,99610.94
2022-12-04T12:28:27.414Z,99600.53
2022-12-04T12:30:54.926Z,99605.81
2022-12-04T12:33:26.863Z,99610.97
2022-12-04T12:35:54.465Z,99618.56
2022-12-04T12:38:25.885Z,99613.00
2022-12-04T12:40:57.516Z,99597.13
2022-12-04T12:43:30.829Z,99606.00
2022-12-04T12:46:06.876Z,99606.53
2022-12-04T12:48:41.446Z,99597.44
2022-12-04T12:51:30.137Z,99607.13
2022-12-04T12:54:04.318Z,99598.31
2022-12-04T12:56:33.892Z,99610.03
2022-12-04T12:59:02.333Z,99606.72
2022-12-04T13:01:32.609Z,99608.72
2022-12-04T13:04:03.013Z,99598.03
2022-12-04T13:06:31.816Z,99590.34
2022-12-04T13:09:07.093Z,99591.94
2022-12-04T13:11:34.896Z,99592.56
2022-12-04T13:14:03.389Z,99593.66
2022-12-04T13:16:35.676Z,99589.37
2022-12-04T13:19:18.402Z,99597.78
2022-12-04T13:22:03.817Z,99603.72
2022-12-04T13:24:40.579Z,99609.75
2022-12-04T13:27:10.257Z,99612.63
2022-12-04T13:29:37.589Z,99620.78
2022-12-04T13:32:27.092Z,99624.06
2022-12-04T13:34:56.013Z,99631.19
2022-12-04T13:37:29.014Z,99628.13
2022-12-04T13:40:14.896Z,99637.53
2022-12-04T13:42:42.305Z,99624.03
2022-12-04T13:45:21.405Z,99612.06
2022-12-04T13:47:55.600Z,99606.91
2022-12-04T13:50:27.234Z,99619.97
2022-12-04T13:52:54.485Z,99619.31
2022-12-04T13:55:35.699Z,99622.84
2022-12-04T13:58:03.043Z,99620.91
2022-12-04T14:00:30.502Z,99620.63
2022-12-04T14:02:59.390Z,99623.59
2022-12-04T14:05:27.974Z,99633.50
2022-12-04T14:08:18.907Z,99635.53
2022-12-04T14:11:03.384Z,99633.53
2022-12-04T14:13:47.457Z,99638.25
2022-12-04T14:16:17.849Z,99643.75
2022-12-04T14:18:52.718Z,99631.88
2022-12-04T14:21:21.510Z,99639.12
2022-12-04T14:23:49.672Z,99640.72
2022-12-04T14:26:20.934Z,99634.09
2022-12-04T14:28:48.989Z,99637.56
2022-12-04T14:31:22.308Z,99621.41
2022-12-04T14:33:50.268Z,99625.50
2022-12-04T14:36:21.266Z,99625.97
2022-12-04T14:38:50.126Z,99627.66
2022-12-04T14:41:24.186Z,99628.47
2022-12-04T14:43:51.637Z,99633.75
2022-12-04T14:46:22.389Z,99628.44
2022-12-04T14:48:53.723Z,99630.50
2022-12-04T14:51:21.101Z,99632.00
2022-12-04T14:53:54.044Z,99633.59
2022-12-04T14:56:25.741Z,99631.47
2022-12-04T14:58:53.290Z,99636.53
2022-12-04T15:01:29.788Z,99628.06
2022-12-04T15:03:59.383Z,99636.66
2022-12-04T15:06:28.030Z,99641.28
2022-12-04T15:09:16.145Z,99636.28
2022-12-04T15:12:05.827Z,99641.44
2022-12-04T15:14:59.223Z,99645.41
2022-12-04T15:17:27.101Z,99634.44
2022-12-04T15:19:54.682Z,99637.47
2022-12-04T15:22:28.775Z,99639.41
2022-12-04T15:24:56.990Z,99644.00
2022-12-04T15:27:31.703Z,99640.59
2022-12-04T15:30:00.265Z,99644.81
2022-12-04T15:32:29.093Z,99639.47
2022-12-04T15:34:58.763Z,99638.06
2022-12-04T15:37:27.206Z,99636.75
2022-12-04T15:39:55.019Z,99637.88
2022-12-04T15:42:22.696Z,99646.62
2022-12-04T15:44:54.620Z,99634.00
2022-12-04T15:47:22.832Z,99640.13
2022-12-04T15:49:50.678Z,99633.22
2022-12-04T15:52:23.182Z,99637.94
2022-12-04T15:54:53.523Z,99633.44
2022-12-04T15:57:21.089Z,99638.25
2022-12-04T15:59:49.076Z,99639.53
2022-12-04T16:02:29.016Z,99637.19
2022-12-04T16:04:57.101Z,99636.47
2022-12-04T16:07:31.305Z,99638.91
2022-12-04T16:10:04.016Z,99638.56
2022-12-04T16:12:32.250Z,99640.69
2022-12-04T16:15:00.087Z,99644.91
2022-12-04T16:17:29.902Z,99640.59
2022-12-04T16:19:57.743Z,99641.22
2022-12-04T16:22:27.311Z,99646.47
2022-12-04T16:24:55.555Z,99641.22
2022-12-04T16:27:24.325Z,99646.72
2022-12-04T16:29:52.514Z,99649.56
2022-12-04T16:32:21.213Z,99651.84
2022-12-04T16:34:48.630Z,99646.81
2022-12-04T16:37:28.671Z,99646.41
2022-12-04T16:39:56.728Z,99650.75
2022-12-04T16:42:27.983Z,99649.53
2022-12-04T16:44:56.817Z,99649.06
2022-12-04T16:47:24.841Z,99649.16
2022-12-04T16:49:52.521Z,99651.41
2022-12-04T16:52:20.066Z,99651.34
2022-12-04T16:54:48.207Z,99645.06
2022-12-04T16:57:15.841Z,99646.16
2022-12-04T16:59:43.575Z,99654.69
2022-12-04T17:02:16.373Z,99653.78
2022-12-04T17:04:44.019Z,99648.59
2022-12-04T17:07:12.453Z,99646.59
2022-12-04T17:09:40.015Z,99655.47
2022-12-04T17:12:07.204Z,99659.06
2022-12-04T17:14:36.079Z,99652.72
2022-12-04T17:17:03.870Z,99649.81
2022-12-04T17:19:31.485Z,99653.00
2022-12-04T17:22:04.965Z,99657.78
2022-12-04T17:24:33.200Z,99657.63
2022-12-04T17:27:04.608Z,99657.53
2022-12-04T17:29:32.248Z,99653.62
2022-12-04T17:31:59.727Z,99652.50
2022-12-04T17:34:27.205Z,99662.00
2022-12-04T17:36:56.257Z,99670.41
2022-12-04T17:39:24.275Z,99658.53
2022-12-04T17:41:52.193Z,99661.91
2022-12-04T17:44:19.839Z,99658.97
2022-12-04T17:46:47.614Z,99664.50
2022-12-04T17:49:18.339Z,99661.59
2022-12-04T17:51:45.977Z,99661.00
2022-12-04T17:54:13.166Z,99664.66
2022-12-04T17:56:46.068Z,99665.22
2022-12-04T17:59:15.745Z,99659.16
2022-12-04T18:01:43.737Z,99662.00
2022-12-04T18:04:11.623Z,99665.22
2022-12-04T18:06:40.788Z,99657.19
2022-12-04T18:09:08.581Z,99666.09
2022-12-04T18:11:37.304Z,99668.22
2022-12-04T18:14:12.201Z,99660.03
2022-12-04T18:16:42.017Z,99675.13
2022-12-04T18:19:10.609Z,99671.13
2022-12-04T18:21:38.332Z,99674.00
2022-12-04T18:24:08.946Z,99678.91
2022-12-04T18:26:37.685Z,99679.44
2022-12-04T18:29:05.321Z,99681.34
2022-12-04T18:31:33.378Z,99678.78
2022-12-04T18:34:01.140Z,99682.56
2022-12-04T18:36:30.316Z,99684.12
2022-12-04T18:38:59.089Z,99691.97
2022-12-04T18:41:26.847Z,99680.06
2022-12-04T18:43:57.426Z,99673.34
2022-12-04T18:46:28.802Z,99676.69
2022-12-04T18:49:03.086Z,99673.87
2022-12-04T18:51:39.799Z,99669.81
2022-12-04T18:54:08.440Z,99665.81
2022-12-04T18:56:36.382Z,99680.63
2022-12-04T18:59:09.197Z,99674.16
2022-12-04T19:01:37.596Z,99672.03
2022-12-04T19:04:06.549Z,99673.53
2022-12-04T19:09:21.126Z,99673.47
2022-12-04T19:11:49.260Z,99677.62
2022-12-04T19:14:23.004Z,99679.19
2022-12-04T19:16:51.994Z,99683.72
2022-12-04T19:19:19.693Z,99680.78
2022-12-04T19:21:47.878Z,99683.13
2022-12-04T19:24:16.122Z,99678.50
2022-12-04T19:26:43.806Z,99681.72
2022-12-04T19:29:14.255Z,99686.75
2022-12-04T19:31:42.693Z,99687.22
2022-12-04T19:34:10.596Z,99681.69
2022-12-04T19:36:39.242Z,99690.09
2022-12-04T19:39:07.749Z,99686.91
2022-12-04T19:41:44.187Z,99682.38
2022-12-04T19:44:46.738Z,99675.19
2022-12-04T19:47:00.864Z,99674.16
2022-12-04T19:49:28.869Z,99681.13
2022-12-04T19:51:56.808Z,99678.44
2022-12-04T19:54:25.674Z,99672.59
2022-12-04T19:56:55.829Z,99681.47
2022-12-04T19:59:23.868Z,99687.72
2022-12-04T20:01:52.336Z,99691.06
2022-12-04T20:04:20.929Z,99683.97
2022-12-04T20:06:48.372Z,99691.59
2022-12-04T20:09:18.517Z,99689.00
2022-12-04T20:11:46.721Z,99703.22
2022-12-04T20:14:14.272Z,99699.81
2022-12-04T20:16:42.428Z,99691.62
2022-12-04T20:19:15.976Z,99688.06
2022-12-04T20:21:43.982Z,99693.72
2022-12-04T20:24:14.910Z,99714.25
2022-12-04T20:26:44.397Z,99711.59
2022-12-04T20:29:15.787Z,99718.09
2022-12-04T20:31:44.747Z,99718.06
2022-12-04T20:34:14.418Z,99724.75
2022-12-04T20:36:43.061Z,99715.75
2022-12-04T20:39:10.809Z,99717.44
2022-12-04T20:41:40.157Z,99717.22
2022-12-04T20:44:08.247Z,99716.69
2022-12-04T20:46:37.491Z,99724.63
2022-12-04T20:49:07.149Z,99723.50
2022-12-04T20:51:39.403Z,99726.06
2022-12-04T20:54:07.782Z,99726.94
2022-12-04T20:56:35.913Z,99726.06
2022-12-04T20:59:10.672Z,99718.37
2022-12-04T21:01:38.156Z,99713.47
2022-12-04T21:04:05.743Z,99729.69
2022-12-04T21:06:36.177Z,99722.75
2022-12-04T21:09:06.106Z,99722.59
2022-12-04T21:11:34.898Z,99714.00
2022-12-04T21:14:21.447Z,99704.63
2022-12-04T21:16:50.581Z,99705.53
2022-12-04T21:19:26.167Z,99701.31
2022-12-04T21:21:53.627Z,99703.22
2022-12-04T21:24:22.128Z,99714.31
2022-12-04T21:26:49.480Z,99719.72
2022-12-04T21:29:16.882Z,99714.34
2022-12-04T21:31:44.029Z,99710.41
2022-12-04T21:34:12.449Z,99711.59
2022-12-04T21:36:39.942Z,99715.75
2022-12-04T21:39:07.656Z,99715.56
2022-12-04T21:41:53.473Z,99720.72
2022-12-04T21:44:21.057Z,99717.41
2022-12-04T21:46:48.501Z,99732.66
2022-12-04T21:49:16.153Z,99730.25
2022-12-04T21:51:59.454Z,99734.63
2022-12-04T21:54:27.326Z,99731.22
2022-12-04T21:56:54.878Z,99731.50
2022-12-04T21:59:22.097Z,99732.47
2022-12-04T22:01:49.309Z,99732.13
2022-12-04T22:04:17.759Z,99732.94
2022-12-04T22:06:44.881Z,99729.16
2022-12-04T22:09:12.383Z,99738.47
2022-12-04T22:11:41.445Z,99734.31
2022-12-04T22:14:10.115Z,99742.22
2022-12-04T22:16:42.066Z,99740.59
2022-12-04T22:19:10.871Z,99736.13
2022-12-04T22:21:37.985Z,99737.72
2022-12-04T22:24:05.290Z,99731.16
2022-12-04T22:26:32.900Z,99733.94
2022-12-04T22:28:59.983Z,99732.00
2022-12-04T22:31:27.630Z,99718.22
2022-12-04T22:33:55.442Z,99711.06
2022-12-04T22:36:23.409Z,99709.28
2022-12-04T22:39:09.841Z,99710.94
2022-12-04T22:41:38.184Z,99706.22
2022-12-04T22:44:05.515Z,99711.28
2022-12-04T22:46:32.767Z,99717.84
2022-12-04T22:49:00.247Z,99717.69
2022-12-04T22:51:27.756Z,99716.47
2022-12-04T22:53:55.899Z,99704.16
2022-12-04T22:56:24.440Z,99693.84
2022-12-04T22:58:52.053Z,99708.91
2022-12-04T23:01:20.084Z,99699.13
2022-12-04T23:03:48.085Z,99708.53
2022-12-04T23:06:15.550Z,99712.69
2022-12-04T23:08:42.829Z,99706.41
2022-12-04T23:11:11.671Z,99704.25
2022-12-04T23:13:41.549Z,99709.72
2022-12-04T23:16:09.869Z,99710.50
2022-12-04T23:18:38.337Z,99704.63
2022-12-04T23:21:06.848Z,99689.94
2022-12-04T23:23:34.654Z,99696.56
2022-12-04T23:26:03.384Z,99695.41
2022-12-04T23:28:30.598Z,99700.59
2022-12-04T23:30:57.694Z,99704.00
2022-12-04T23:33:25.369Z,99701.22
2022-12-04T23:35:53.188Z,99696.72
2022-12-04T23:38:20.307Z,99701.63
2022-12-04T23:40:47.681Z,99697.38
2022-12-04T23:43:15.750Z,99699.34
2022-12-04T23:45:43.270Z,99703.03
2022-12-04T23:48:10.796Z,99705.78
2022-12-04T23:50:37.879Z,99705.94
2022-12-04T23:53:04.976Z,99706.50
2022-12-04T23:55:34.566Z,99705.09
2022-12-04T23:58:02.208Z,99700.50
